Accueil
METAR-TAF:

METAR-TAF

Aéroports :

Aéroport de Poitiers-Biard

Poitiers, France

latitude: 46-35N, longitude: 000-19E, altitude: 129 m

Observation

Le bulletin a été fait il y a 28 minutes, à 07:30 UTC
Vent 2 kt de direction variable
Température 19°C
Humidité 68%
Pression 1024 hPa
Visibilité 10 km ou plus
pas de nuages en-dessous de 1500 mètres et pas de cumulonimbus.

METAR: LFBI 190730Z AUTO VRB02KT CAVOK 19/13 Q1024 NOSIG

Heure: 09:58 (07:58 UTC)

Prévision

Le bulletin a été fait il y a 2 heures et 58 minutes, à 05:00 UTC
Prévision valable du 19 à 06 UTC au 20 à 06 UTC
Vent 5 kt de nord/nord-ouest
Visibilité 10 km ou plus
pas de nuages en-dessous de 1500 mètres et pas de cumulonimbus.

TAF: LFBI 190500Z 1906/2006 33005KT CAVOK

Observations et prévisions météorologiques de plus de 4000 aéroports (messages METAR et TAF).

Les stations disponibles sont représentées par des disques jaunes et rouges sur la carte.

Passer la souris dessus pour voir le nom de la station.

Cliquer dessus pour voir les observations et prévisions météorologiques.

Pour changer de carte: cliquez sur les boutons verts avec une croix noire pour zoomer, sur le bouton vert avec un tiret pour effectuer un zoom arrière, ou sur les flèches vertes pour les cartes adjacentes.


METAR-TAF: